Time;durP1;ratioP1;P1;durP2;ratioP2;P2;SDS_P1;SDS_P2;PMS_P1;PMS_P2;Temp;Humidity;BMP_temperature;BMP_pressure;BME280_temperature;BME280_humidity;BME280_pressure;Samples;Min_cycle;Max_cycle;Signal;HPM_P1;HPM_P2
2021/04/24 00:00:28;;;;;;;;;;;22.10;35.00;;;;;;1541538;76;751;-63
2021/04/24 00:02:30;;;;;;;;;;;22.10;34.90;;;;;;1540571;76;783;-63
2021/04/24 00:04:32;;;;;;;;;;;22.00;34.80;;;;;;1541605;76;795;-63
2021/04/24 00:06:34;;;;;;;;;;;22.00;34.90;;;;;;1546327;76;1102;-63
2021/04/24 00:08:37;;;;;;;;;;;22.20;35.00;;;;;;1545347;76;792;-63
2021/04/24 00:10:39;;;;;;;;;;;22.00;34.90;;;;;;1544695;76;1912;-63
2021/04/24 00:12:41;;;;;;;;;;;22.20;35.20;;;;;;1542634;76;812;-63
2021/04/24 00:14:43;;;;;;;;;;;22.10;35.00;;;;;;1542210;76;1154;-63
2021/04/24 00:16:45;;;;;;;;;;;22.10;35.00;;;;;;1537157;76;834;-63
2021/04/24 00:18:47;;;;;;;;;;;22.10;35.00;;;;;;1536629;76;762;-63
2021/04/24 00:20:49;;;;;;;;;;;22.10;35.00;;;;;;1541201;76;735;-63
2021/04/24 00:22:51;;;;;;;;;;;22.10;35.00;;;;;;1542646;76;862;-62
2021/04/24 00:24:53;;;;;;;;;;;22.10;35.10;;;;;;1539226;76;1244;-63
2021/04/24 00:26:55;;;;;;;;;;;22.30;35.30;;;;;;1540813;76;791;-62
2021/04/24 00:28:57;;;;;;;;;;;22.30;35.50;;;;;;1545062;76;726;-62
2021/04/24 00:30:59;;;;;;;;;;;22.20;35.40;;;;;;1544010;76;1943;-63
2021/04/24 00:33:01;;;;;;;;;;;22.30;35.50;;;;;;1553287;76;718;-64
2021/04/24 00:35:03;;;;;;;;;;;22.30;35.50;;;;;;1542156;76;1157;-62
2021/04/24 00:37:05;;;;;;;;;;;22.20;35.30;;;;;;1537689;76;733;-63
2021/04/24 00:39:07;;;;;;;;;;;22.30;35.40;;;;;;1539704;76;801;-62
2021/04/24 00:41:09;;;;;;;;;;;22.30;35.50;;;;;;1545559;76;769;-62
2021/04/24 00:43:12;;;;;;;;;;;22.30;35.90;;;;;;1537086;76;731;-62
2021/04/24 00:45:14;;;;;;;;;;;22.40;36.00;;;;;;1539570;76;1173;-62
2021/04/24 00:47:17;;;;;;;;;;;22.30;36.00;;;;;;1533104;76;740;-62
2021/04/24 00:49:19;;;;;;;;;;;22.40;36.00;;;;;;1534982;76;824;-62
2021/04/24 00:51:21;;;;;;;;;;;22.30;36.10;;;;;;1547400;76;1937;-63
2021/04/24 00:53:23;;;;;;;;;;;22.40;36.10;;;;;;1535314;76;787;-62
2021/04/24 00:55:25;;;;;;;;;;;22.40;36.10;;;;;;1539809;76;1078;-62
2021/04/24 00:57:28;;;;;;;;;;;22.30;36.20;;;;;;1540582;76;742;-62
2021/04/24 00:59:29;;;;;;;;;;;22.40;36.10;;;;;;1539442;76;608;-62
2021/04/24 01:01:31;;;;;;;;;;;22.40;36.10;;;;;;1530194;76;768;-62
2021/04/24 01:03:33;;;;;;;;;;;22.40;36.10;;;;;;1538900;76;795;-64
2021/04/24 01:05:36;;;;;;;;;;;22.40;36.00;;;;;;1540911;76;1138;-63
2021/04/24 01:07:38;;;;;;;;;;;22.40;36.10;;;;;;1538008;76;706;-63
2021/04/24 01:09:41;;;;;;;;;;;22.40;36.00;;;;;;1535879;76;1940;-64
2021/04/24 01:11:43;;;;;;;;;;;22.40;36.00;;;;;;1538306;76;706;-62
2021/04/24 01:13:44;;;;;;;;;;;22.40;35.90;;;;;;1537002;76;790;-63
2021/04/24 01:15:47;;;;;;;;;;;22.40;36.00;;;;;;1542213;76;1122;-63
2021/04/24 01:17:49;;;;;;;;;;;22.50;36.00;;;;;;1541550;76;721;-65
2021/04/24 01:19:50;;;;;;;;;;;22.40;36.00;;;;;;1535117;76;805;-63
2021/04/24 01:21:53;;;;;;;;;;;22.40;35.80;;;;;;1548144;76;710;-64
2021/04/24 01:23:55;;;;;;;;;;;22.40;35.80;;;;;;1544677;76;789;-64
2021/04/24 01:25:57;;;;;;;;;;;22.40;35.80;;;;;;1539759;76;1195;-64
2021/04/24 01:27:59;;;;;;;;;;;22.40;35.80;;;;;;1543031;76;733;-63
2021/04/24 01:30:02;;;;;;;;;;;22.40;35.80;;;;;;1542584;76;1937;-64
2021/04/24 01:32:05;;;;;;;;;;;22.40;35.80;;;;;;1538999;76;707;-64
2021/04/24 01:34:07;;;;;;;;;;;22.30;35.90;;;;;;1544894;76;779;-64
2021/04/24 01:36:09;;;;;;;;;;;22.30;35.90;;;;;;1548795;71;218491;-57
2021/04/24 01:38:11;;;;;;;;;;;22.30;35.80;;;;;;1553952;74;743;-57
2021/04/24 01:40:14;;;;;;;;;;;22.30;35.70;;;;;;1551943;74;1191;-59
2021/04/24 01:42:16;;;;;;;;;;;22.30;35.80;;;;;;1539190;74;709;-59
2021/04/24 01:44:18;;;;;;;;;;;22.40;35.70;;;;;;1539927;74;783;-59
2021/04/24 01:46:20;;;;;;;;;;;22.40;35.70;;;;;;1545774;74;702;-60
2021/04/24 01:48:22;;;;;;;;;;;22.30;35.70;;;;;;1541261;74;885;-59
2021/04/24 01:50:24;;;;;;;;;;;22.40;35.70;;;;;;1545446;74;1951;-59
2021/04/24 01:52:37;;;;;;;;;;;22.30;35.70;;;;;;1540703;74;897;-59
2021/04/24 01:54:39;;;;;;;;;;;22.40;35.80;;;;;;1542755;74;1023;-59
2021/04/24 01:56:42;;;;;;;;;;;22.30;35.70;;;;;;1551600;74;739;-59
2021/04/24 01:58:44;;;;;;;;;;;22.30;35.70;;;;;;1547001;74;1108;-58
2021/04/24 02:00:51;;;;;;;;;;;22.30;35.70;;;;;;1542649;74;1125;-58
2021/04/24 02:02:53;;;;;;;;;;;22.30;35.80;;;;;;1544642;74;746;-60
2021/04/24 02:04:55;;;;;;;;;;;22.30;35.70;;;;;;1547811;74;690;-59
2021/04/24 02:06:56;;;;;;;;;;;22.30;35.70;;;;;;1550375;74;687;-58
2021/04/24 02:08:58;;;;;;;;;;;22.30;35.70;;;;;;1553509;74;1125;-59
2021/04/24 02:11:00;;;;;;;;;;;22.30;35.70;;;;;;1549267;74;1942;-59
2021/04/24 02:13:04;;;;;;;;;;;22.30;35.70;;;;;;1543159;74;766;-59
2021/04/24 02:15:06;;;;;;;;;;;22.30;35.70;;;;;;1541940;74;1811;-59
2021/04/24 02:17:10;;;;;;;;;;;22.30;35.80;;;;;;1556856;74;750;-58
2021/04/24 02:19:12;;;;;;;;;;;22.30;35.80;;;;;;1549388;74;1910;-60
2021/04/24 02:21:14;;;;;;;;;;;22.30;35.80;;;;;;1549548;74;744;-58
2021/04/24 02:23:15;;;;;;;;;;;22.30;35.80;;;;;;1551173;74;804;-60
2021/04/24 02:25:18;;;;;;;;;;;22.30;35.80;;;;;;1545443;74;746;-58
2021/04/24 02:27:20;;;;;;;;;;;22.30;35.80;;;;;;1553787;74;668;-59
2021/04/24 02:29:21;;;;;;;;;;;22.40;35.90;;;;;;1557942;74;1133;-60
2021/04/24 02:31:23;;;;;;;;;;;22.40;35.90;;;;;;1546547;74;1948;-59
2021/04/24 02:33:25;;;;;;;;;;;22.30;36.00;;;;;;1542455;74;717;-59
2021/04/24 02:35:44;;;;;;;;;;;22.30;36.00;;;;;;1550643;74;722;-59
2021/04/24 02:37:46;;;;;;;;;;;22.30;36.00;;;;;;1550950;74;1694;-59
2021/04/24 02:39:49;;;;;;;;;;;22.30;36.10;;;;;;1541226;75;1139;-59
2021/04/24 02:41:51;;;;;;;;;;;22.30;36.10;;;;;;1542806;74;722;-59
2021/04/24 02:43:53;;;;;;;;;;;22.20;36.00;;;;;;1554402;74;793;-59
2021/04/24 02:45:55;;;;;;;;;;;22.20;36.10;;;;;;1548188;74;680;-58
2021/04/24 02:47:57;;;;;;;;;;;22.20;36.30;;;;;;1544400;74;729;-58
2021/04/24 02:49:59;;;;;;;;;;;22.10;36.40;;;;;;1546224;74;1091;-59
2021/04/24 02:52:01;;;;;;;;;;;22.20;36.50;;;;;;1546928;74;1943;-59
2021/04/24 02:54:03;;;;;;;;;;;22.10;36.50;;;;;;1538086;74;793;-57
2021/04/24 02:56:05;;;;;;;;;;;22.20;36.60;;;;;;1546983;74;760;-58
2021/04/24 02:58:07;;;;;;;;;;;22.10;36.50;;;;;;1551559;74;716;-59
2021/04/24 03:00:09;;;;;;;;;;;22.00;36.50;;;;;;1540456;74;1135;-59
2021/04/24 03:02:11;;;;;;;;;;;22.10;36.60;;;;;;1548773;74;716;-58
2021/04/24 03:04:14;;;;;;;;;;;22.00;36.60;;;;;;1554769;74;823;-59
2021/04/24 03:06:15;;;;;;;;;;;22.00;36.60;;;;;;1554797;74;725;-59
2021/04/24 03:08:17;;;;;;;;;;;22.00;36.80;;;;;;1548077;74;770;-59
2021/04/24 03:10:19;;;;;;;;;;;22.00;36.70;;;;;;1542803;74;1951;-60
2021/04/24 03:12:21;;;;;;;;;;;21.90;36.80;;;;;;1546919;74;767;-60
2021/04/24 03:14:23;;;;;;;;;;;21.90;36.80;;;;;;1547436;74;894;-59
2021/04/24 03:16:25;;;;;;;;;;;21.90;36.90;;;;;;1538668;74;731;-60
2021/04/24 03:18:27;;;;;;;;;;;22.00;36.80;;;;;;1554364;74;730;-60
2021/04/24 03:20:29;;;;;;;;;;;22.00;36.80;;;;;;1552397;74;1168;-58
2021/04/24 03:22:31;;;;;;;;;;;22.00;36.80;;;;;;1547729;74;761;-59
2021/04/24 03:24:32;;;;;;;;;;;22.00;36.70;;;;;;1546132;74;749;-59
2021/04/24 03:26:34;;;;;;;;;;;22.00;36.70;;;;;;1555218;74;775;-60
2021/04/24 03:28:36;;;;;;;;;;;22.00;36.60;;;;;;1558456;74;942;-60
2021/04/24 03:30:38;;;;;;;;;;;22.00;36.40;;;;;;1548428;74;1956;-60
2021/04/24 03:32:40;;;;;;;;;;;22.00;36.50;;;;;;1549246;74;711;-60
2021/04/24 03:34:42;;;;;;;;;;;22.10;36.50;;;;;;1549199;74;928;-59
2021/04/24 03:36:44;;;;;;;;;;;22.20;36.40;;;;;;1553024;74;784;-60
2021/04/24 03:38:46;;;;;;;;;;;22.10;36.30;;;;;;1544089;74;756;-58
2021/04/24 03:40:48;;;;;;;;;;;22.10;36.40;;;;;;1547362;74;840;-59
2021/04/24 03:42:50;;;;;;;;;;;22.10;36.40;;;;;;1543388;74;739;-58
2021/04/24 03:44:51;;;;;;;;;;;22.20;36.50;;;;;;1547982;74;825;-60
2021/04/24 03:46:53;;;;;;;;;;;22.20;36.40;;;;;;1546085;74;778;-59
2021/04/24 03:48:55;;;;;;;;;;;22.30;36.40;;;;;;1558733;74;1117;-59
2021/04/24 03:50:57;;;;;;;;;;;22.40;36.20;;;;;;1555702;74;1938;-59
2021/04/24 03:52:59;;;;;;;;;;;22.40;36.00;;;;;;1549418;74;686;-59
2021/04/24 03:55:01;;;;;;;;;;;22.50;36.10;;;;;;1543845;74;732;-59
2021/04/24 03:57:03;;;;;;;;;;;22.40;35.90;;;;;;1563139;74;666;-59
2021/04/24 03:59:05;;;;;;;;;;;22.50;36.00;;;;;;1568298;74;1053;-58
2021/04/24 04:01:07;;;;;;;;;;;22.50;36.00;;;;;;1556250;74;738;-58
2021/04/24 04:03:09;;;;;;;;;;;22.40;35.80;;;;;;1553950;74;739;-58
2021/04/24 04:05:11;;;;;;;;;;;22.50;35.90;;;;;;1548791;75;709;-59
2021/04/24 04:07:13;;;;;;;;;;;22.60;35.80;;;;;;1555388;74;754;-59
2021/04/24 04:09:15;;;;;;;;;;;22.60;35.70;;;;;;1548546;74;1084;-57
2021/04/24 04:11:17;;;;;;;;;;;22.60;35.70;;;;;;1542773;74;1948;-59
2021/04/24 04:13:19;;;;;;;;;;;22.50;35.70;;;;;;1553709;74;667;-59
2021/04/24 04:15:21;;;;;;;;;;;22.50;35.70;;;;;;1549459;74;757;-59
2021/04/24 04:17:23;;;;;;;;;;;22.50;35.70;;;;;;1544412;74;722;-59
2021/04/24 04:19:25;;;;;;;;;;;22.60;35.70;;;;;;1552718;74;1164;-59
2021/04/24 04:21:27;;;;;;;;;;;22.60;35.70;;;;;;1565726;74;811;-59
2021/04/24 04:23:29;;;;;;;;;;;22.50;35.70;;;;;;1547185;74;894;-59
2021/04/24 04:25:31;;;;;;;;;;;22.50;35.70;;;;;;1561489;74;799;-58
2021/04/24 04:27:32;;;;;;;;;;;22.50;35.70;;;;;;1546590;74;794;-60
2021/04/24 04:29:34;;;;;;;;;;;22.50;35.70;;;;;;1552728;74;1100;-60
2021/04/24 04:31:37;;;;;;;;;;;22.50;35.60;;;;;;1555746;74;1951;-59
2021/04/24 04:33:38;;;;;;;;;;;22.50;35.60;;;;;;1559010;74;752;-60
2021/04/24 04:35:40;;;;;;;;;;;22.50;35.60;;;;;;1556563;74;777;-60
2021/04/24 04:37:42;;;;;;;;;;;22.50;35.70;;;;;;1556774;75;789;-60
2021/04/24 04:39:44;;;;;;;;;;;22.60;35.70;;;;;;1553133;74;1133;-59
2021/04/24 04:41:46;;;;;;;;;;;22.60;35.70;;;;;;1550993;74;753;-60
2021/04/24 04:43:48;;;;;;;;;;;22.50;35.60;;;;;;1555753;74;680;-58
2021/04/24 04:45:50;;;;;;;;;;;22.50;35.60;;;;;;1539001;74;782;-59
2021/04/24 04:47:52;;;;;;;;;;;22.60;35.70;;;;;;1535394;75;760;-58
2021/04/24 04:49:53;;;;;;;;;;;22.60;35.70;;;;;;1548344;74;1048;-59
2021/04/24 04:51:55;;;;;;;;;;;22.50;35.90;;;;;;1537703;74;1948;-59
2021/04/24 04:53:57;;;;;;;;;;;22.50;35.90;;;;;;1542002;74;715;-60
2021/04/24 04:55:59;;;;;;;;;;;22.50;35.90;;;;;;1544617;74;724;-60
2021/04/24 04:58:01;;;;;;;;;;;22.50;35.80;;;;;;1547069;74;720;-60
2021/04/24 05:00:07;;;;;;;;;;;22.60;35.70;;;;;;1549348;74;1129;-58
2021/04/24 05:02:09;;;;;;;;;;;22.60;35.70;;;;;;1539420;74;701;-55
2021/04/24 05:04:10;;;;;;;;;;;22.50;35.70;;;;;;1553238;74;737;-58
2021/04/24 05:06:12;;;;;;;;;;;22.60;35.70;;;;;;1548723;74;697;-60
2021/04/24 05:08:14;;;;;;;;;;;22.60;35.70;;;;;;1536290;75;730;-59
2021/04/24 05:10:20;;;;;;;;;;;22.60;35.70;;;;;;1552913;75;1089;-58
2021/04/24 05:12:21;;;;;;;;;;;22.60;35.70;;;;;;1552824;74;1915;-58
2021/04/24 05:14:23;;;;;;;;;;;22.60;35.70;;;;;;1545659;74;756;-58
2021/04/24 05:16:25;;;;;;;;;;;22.60;35.70;;;;;;1545350;74;727;-59
2021/04/24 05:18:27;;;;;;;;;;;22.60;35.70;;;;;;1543009;74;753;-60
2021/04/24 05:20:29;;;;;;;;;;;22.60;35.80;;;;;;1546465;74;1159;-59
2021/04/24 05:22:31;;;;;;;;;;;22.60;35.70;;;;;;1542325;74;725;-59
2021/04/24 05:24:33;;;;;;;;;;;22.60;35.90;;;;;;1541185;74;765;-59
2021/04/24 05:26:35;;;;;;;;;;;22.60;35.90;;;;;;1543180;74;741;-58
2021/04/24 05:28:37;;;;;;;;;;;22.60;36.00;;;;;;1541926;74;719;-59
2021/04/24 05:30:38;;;;;;;;;;;22.60;36.10;;;;;;1549913;74;1111;-59
2021/04/24 05:32:40;;;;;;;;;;;22.60;36.10;;;;;;1549683;74;1940;-58
2021/04/24 05:34:42;;;;;;;;;;;22.60;36.10;;;;;;1544067;74;746;-59
2021/04/24 05:36:44;;;;;;;;;;;22.60;36.00;;;;;;1541163;75;811;-59
2021/04/24 05:38:47;;;;;;;;;;;22.60;36.00;;;;;;1545330;74;801;-59
2021/04/24 05:40:49;;;;;;;;;;;22.60;36.10;;;;;;1538913;74;950;-57
2021/04/24 05:42:51;;;;;;;;;;;22.60;36.10;;;;;;1537829;74;729;-59
2021/04/24 05:44:53;;;;;;;;;;;22.60;36.00;;;;;;1541038;74;744;-60
2021/04/24 05:46:55;;;;;;;;;;;22.60;36.00;;;;;;1543821;74;770;-60
2021/04/24 05:48:56;;;;;;;;;;;22.60;36.00;;;;;;1542665;74;1115;-59
2021/04/24 05:50:59;;;;;;;;;;;22.60;36.10;;;;;;1550014;74;734;-59
2021/04/24 05:53:01;;;;;;;;;;;22.60;36.00;;;;;;1549524;74;1907;-59
2021/04/24 05:55:04;;;;;;;;;;;22.60;36.00;;;;;;1541191;75;733;-59
2021/04/24 05:57:06;;;;;;;;;;;22.70;36.10;;;;;;1549299;74;673;-59
2021/04/24 05:59:08;;;;;;;;;;;22.60;35.90;;;;;;1554288;74;1161;-59
2021/04/24 06:01:10;;;;;;;;;;;22.60;36.00;;;;;;1547785;75;784;-59
2021/04/24 06:03:12;;;;;;;;;;;22.60;36.00;;;;;;1543953;74;771;-60
2021/04/24 06:05:14;;;;;;;;;;;22.60;35.90;;;;;;1547675;74;750;-60
2021/04/24 06:07:16;;;;;;;;;;;22.70;36.00;;;;;;1541983;74;699;-59
2021/04/24 06:09:17;;;;;;;;;;;22.60;35.80;;;;;;1546148;74;1143;-58
2021/04/24 06:11:19;;;;;;;;;;;22.60;36.00;;;;;;1549932;74;730;-59
2021/04/24 06:13:21;;;;;;;;;;;22.60;36.30;;;;;;1549046;74;1949;-58
2021/04/24 06:15:23;;;;;;;;;;;22.60;36.40;;;;;;1546050;74;791;-59
2021/04/24 06:17:25;;;;;;;;;;;22.60;36.20;;;;;;1556770;74;715;-58
2021/04/24 06:19:27;;;;;;;;;;;22.60;36.10;;;;;;1549454;74;1104;-60
2021/04/24 06:21:29;;;;;;;;;;;22.60;35.90;;;;;;1556881;74;763;-59
2021/04/24 06:23:31;;;;;;;;;;;22.60;36.00;;;;;;1555820;74;786;-61
2021/04/24 06:25:33;;;;;;;;;;;22.60;36.00;;;;;;1545835;74;782;-60
2021/04/24 06:27:35;;;;;;;;;;;22.60;36.10;;;;;;1548834;76;720;-58
2021/04/24 06:29:36;;;;;;;;;;;22.70;36.10;;;;;;1543875;74;1126;-59
2021/04/24 06:31:38;;;;;;;;;;;22.60;36.00;;;;;;1545089;74;1944;-60
2021/04/24 06:33:40;;;;;;;;;;;22.70;36.20;;;;;;1545650;74;737;-60
2021/04/24 06:35:42;;;;;;;;;;;22.70;36.30;;;;;;1545156;74;745;-61
2021/04/24 06:37:44;;;;;;;;;;;22.60;36.10;;;;;;1541719;75;729;-61
2021/04/24 06:39:46;;;;;;;;;;;22.60;36.00;;;;;;1537812;74;1161;-61
2021/04/24 06:41:48;;;;;;;;;;;22.60;35.90;;;;;;1543423;74;735;-60
2021/04/24 06:43:50;;;;;;;;;;;22.60;35.90;;;;;;1547778;74;707;-59
2021/04/24 06:45:51;;;;;;;;;;;22.50;35.80;;;;;;1545436;74;753;-61
2021/04/24 06:47:53;;;;;;;;;;;22.50;35.60;;;;;;1546789;74;709;-59
2021/04/24 06:49:55;;;;;;;;;;;22.50;35.50;;;;;;1542575;74;1143;-59
2021/04/24 06:51:57;;;;;;;;;;;22.60;35.40;;;;;;1543492;74;1937;-60
2021/04/24 06:53:59;;;;;;;;;;;22.60;35.00;;;;;;1538174;74;1314;-60
2021/04/24 06:56:01;;;;;;;;;;;22.50;34.90;;;;;;1543398;74;734;-60
2021/04/24 06:58:03;;;;;;;;;;;22.40;34.70;;;;;;1551955;74;914;-60
2021/04/24 07:00:05;;;;;;;;;;;22.30;35.70;;;;;;1548581;74;1216;-61
2021/04/24 07:02:09;;;;;;;;;;;22.30;35.60;;;;;;1548135;74;651;-60
2021/04/24 07:04:11;;;;;;;;;;;22.50;34.10;;;;;;1556659;74;697;-59
2021/04/24 07:06:13;;;;;;;;;;;22.60;32.40;;;;;;1545283;75;685;-61
2021/04/24 07:08:15;;;;;;;;;;;22.60;30.00;;;;;;1546619;74;774;-60
2021/04/24 07:10:17;;;;;;;;;;;22.60;29.20;;;;;;1538620;74;1187;-61
2021/04/24 07:12:18;;;;;;;;;;;22.50;29.20;;;;;;1564408;74;1927;-60
2021/04/24 07:14:20;;;;;;;;;;;22.50;28.40;;;;;;1572465;74;762;-61
2021/04/24 07:16:22;;;;;;;;;;;22.50;28.90;;;;;;1555623;74;802;-60
2021/04/24 07:18:24;;;;;;;;;;;22.60;28.70;;;;;;1554395;74;765;-61
2021/04/24 07:20:26;;;;;;;;;;;22.50;28.80;;;;;;1547248;74;1126;-61
2021/04/24 07:22:28;;;;;;;;;;;22.60;28.40;;;;;;1553428;74;757;-59
2021/04/24 07:24:30;;;;;;;;;;;22.60;27.70;;;;;;1557384;74;841;-59
2021/04/24 07:26:32;;;;;;;;;;;22.60;28.10;;;;;;1554178;74;783;-61
2021/04/24 07:28:33;;;;;;;;;;;22.50;26.70;;;;;;1555179;75;771;-61
2021/04/24 07:30:35;;;;;;;;;;;22.50;27.40;;;;;;1556518;74;1132;-61
2021/04/24 07:32:37;;;;;;;;;;;22.40;27.10;;;;;;1555077;74;1944;-60
2021/04/24 07:34:39;;;;;;;;;;;22.40;27.60;;;;;;1556194;74;723;-61
2021/04/24 07:36:41;;;;;;;;;;;22.40;27.50;;;;;;1570662;70;214525;-59
2021/04/24 07:38:43;;;;;;;;;;;22.50;27.80;;;;;;1589386;73;872;-59
2021/04/24 07:40:45;;;;;;;;;;;22.50;28.00;;;;;;1594669;74;801;-60
2021/04/24 07:42:47;;;;;;;;;;;22.60;27.50;;;;;;1587904;74;655;-60
2021/04/24 07:44:49;;;;;;;;;;;22.60;27.60;;;;;;1596487;73;740;-61
2021/04/24 07:46:51;;;;;;;;;;;22.40;26.90;;;;;;1603688;72;1187;-58
2021/04/24 07:48:53;;;;;;;;;;;22.40;26.90;;;;;;1609570;72;772;-59
2021/04/24 07:50:54;;;;;;;;;;;22.50;27.90;;;;;;1617118;72;750;-60
2021/04/24 07:52:56;;;;;;;;;;;22.50;27.60;;;;;;1611412;72;1935;-60
2021/04/24 07:54:58;;;;;;;;;;;22.60;27.70;;;;;;1613280;72;744;-60
2021/04/24 07:57:00;;;;;;;;;;;22.70;28.00;;;;;;1618777;72;1110;-60
2021/04/24 07:59:02;;;;;;;;;;;22.60;26.40;;;;;;1617230;72;752;-60
2021/04/24 08:01:04;;;;;;;;;;;22.50;26.60;;;;;;1615189;72;818;-60
2021/04/24 08:03:06;;;;;;;;;;;22.50;27.00;;;;;;1617907;72;775;-61
2021/04/24 08:05:08;;;;;;;;;;;22.60;26.90;;;;;;1614775;72;732;-60
2021/04/24 08:07:10;;;;;;;;;;;22.60;27.30;;;;;;1616434;72;1111;-60
2021/04/24 08:09:12;;;;;;;;;;;22.50;27.00;;;;;;1613959;72;682;-60
2021/04/24 08:11:14;;;;;;;;;;;22.60;27.00;;;;;;1613908;72;809;-61
2021/04/24 08:13:15;;;;;;;;;;;22.60;27.40;;;;;;1614027;72;1989;-58
2021/04/24 08:15:17;;;;;;;;;;;22.70;27.90;;;;;;1605917;72;689;-58
2021/04/24 08:17:19;;;;;;;;;;;22.70;27.50;;;;;;1616241;72;832;-61
2021/04/24 08:19:21;;;;;;;;;;;22.70;28.20;;;;;;1609498;72;758;-62
2021/04/24 08:21:23;;;;;;;;;;;22.60;27.50;;;;;;1613085;72;827;-59
2021/04/24 08:23:25;;;;;;;;;;;22.60;27.60;;;;;;1601602;72;728;-61
2021/04/24 08:25:27;;;;;;;;;;;22.60;27.70;;;;;;1592627;72;1114;-59
2021/04/24 08:27:28;;;;;;;;;;;22.60;27.80;;;;;;1589058;72;584;-61
2021/04/24 08:29:30;;;;;;;;;;;22.70;27.20;;;;;;1603077;72;714;-61
2021/04/24 08:31:32;;;;;;;;;;;22.50;27.60;;;;;;1589423;72;763;-61
2021/04/24 08:33:34;;;;;;;;;;;22.60;26.60;;;;;;1585625;72;1932;-61
2021/04/24 08:35:37;;;;;;;;;;;22.30;27.20;;;;;;1596212;72;1130;-62
2021/04/24 08:37:39;;;;;;;;;;;22.30;27.60;;;;;;1605785;72;754;-62
2021/04/24 08:39:41;;;;;;;;;;;22.40;27.60;;;;;;1596535;72;762;-62
2021/04/24 08:41:42;;;;;;;;;;;22.30;24.90;;;;;;1596280;72;958;-61
2021/04/24 08:43:44;;;;;;;;;;;22.00;24.80;;;;;;1584945;72;785;-60
2021/04/24 08:45:46;;;;;;;;;;;21.80;25.50;;;;;;1595036;72;1154;-61
2021/04/24 08:47:49;;;;;;;;;;;21.80;25.10;;;;;;1587699;72;625;-61
2021/04/24 08:49:53;;;;;;;;;;;21.50;24.10;;;;;;1594673;72;831;-60
2021/04/24 08:51:54;;;;;;;;;;;21.30;23.30;;;;;;1592252;72;1701;-61
2021/04/24 08:53:59;;;;;;;;;;;21.30;24.70;;;;;;1593575;72;1942;-63
2021/04/24 08:56:00;;;;;;;;;;;21.30;23.10;;;;;;1587192;72;1694;-64
2021/04/24 08:58:04;;;;;;;;;;;21.30;24.80;;;;;;1581461;72;732;-64
2021/04/24 09:00:07;;;;;;;;;;;21.30;24.30;;;;;;1582913;72;724;-66
2021/04/24 09:02:09;;;;;;;;;;;21.40;25.30;;;;;;1592197;72;729;-67
2021/04/24 09:04:11;;;;;;;;;;;21.50;24.30;;;;;;1592525;72;743;-62
2021/04/24 09:06:13;;;;;;;;;;;21.70;24.40;;;;;;1592204;72;1127;-63
2021/04/24 09:08:17;;;;;;;;;;;21.90;25.00;;;;;;1589650;72;814;-62
2021/04/24 09:10:21;;;;;;;;;;;21.80;24.30;;;;;;1591056;72;1099;-63
2021/04/24 09:12:39;;;;;;;;;;;22.00;24.80;;;;;;1601369;72;779;-63
2021/04/24 09:14:41;;;;;;;;;;;21.90;23.30;;;;;;1587561;72;771;-62
2021/04/24 09:16:43;;;;;;;;;;;21.80;23.20;;;;;;1598431;72;1172;-62
2021/04/24 09:18:45;;;;;;;;;;;21.80;23.90;;;;;;1596261;72;803;-62
2021/04/24 09:20:55;;;;;;;;;;;21.90;24.10;;;;;;1587199;72;750;-62
2021/04/24 09:23:04;;;;;;;;;;;22.00;24.70;;;;;;1600905;72;837;-62
2021/04/24 09:25:07;;;;;;;;;;;22.00;24.40;;;;;;1597404;72;752;-63
2021/04/24 09:27:08;;;;;;;;;;;22.10;24.70;;;;;;1583241;72;1129;-62
2021/04/24 09:29:10;;;;;;;;;;;22.10;24.10;;;;;;1582782;72;684;-61
2021/04/24 09:31:14;;;;;;;;;;;22.00;22.50;;;;;;1587484;73;753;-63
2021/04/24 09:33:16;;;;;;;;;;;22.00;23.70;;;;;;1585236;72;1916;-60
2021/04/24 09:35:21;;;;;;;;;;;21.80;22.30;;;;;;1591239;72;847;-61
2021/04/24 09:37:23;;;;;;;;;;;21.90;23.50;;;;;;1596352;72;779;-63
2021/04/24 09:39:25;;;;;;;;;;;21.80;21.20;;;;;;1588259;72;697;-63
2021/04/24 09:41:35;;;;;;;;;;;21.80;22.30;;;;;;1557753;73;1127;-63
2021/04/24 09:43:56;;;;;;;;;;;21.80;22.00;;;;;;1592535;72;1522;-62
2021/04/24 09:45:57;;;;;;;;;;;21.80;22.30;;;;;;1605435;72;1408;-64
2021/04/24 09:48:00;;;;;;;;;;;21.80;22.90;;;;;;1608400;72;752;-62
2021/04/24 09:50:03;;;;;;;;;;;21.80;22.80;;;;;;1602768;72;763;-64
2021/04/24 09:52:06;;;;;;;;;;;21.80;22.60;;;;;;1593226;72;1979;-63
2021/04/24 09:54:08;;;;;;;;;;;21.90;22.90;;;;;;1598053;72;1932;-63
2021/04/24 09:56:11;;;;;;;;;;;22.00;23.10;;;;;;1595433;72;1127;-64
2021/04/24 09:58:27;;;;;;;;;;;22.00;22.70;;;;;;1612357;72;1798;-63
2021/04/24 10:00:29;;;;;;;;;;;22.00;22.60;;;;;;1585231;72;703;-63
2021/04/24 10:02:32;;;;;;;;;;;22.00;23.00;;;;;;1612701;72;823;-62
2021/04/24 10:04:33;;;;;;;;;;;21.90;23.00;;;;;;1596332;72;792;-63
2021/04/24 10:06:37;;;;;;;;;;;22.00;21.60;;;;;;1607406;72;1156;-63
2021/04/24 10:08:38;;;;;;;;;;;21.90;20.70;;;;;;1608321;72;683;-64
2021/04/24 10:10:41;;;;;;;;;;;21.60;22.20;;;;;;1601217;72;765;-63
2021/04/24 10:12:47;;;;;;;;;;;21.60;20.80;;;;;;1606773;72;771;-63
2021/04/24 10:14:49;;;;;;;;;;;21.60;22.30;;;;;;1593068;72;1937;-63
2021/04/24 10:16:51;;;;;;;;;;;21.60;23.00;;;;;;1605048;72;1110;-63
2021/04/24 10:18:54;;;;;;;;;;;21.70;21.30;;;;;;1605000;72;811;-62
2021/04/24 10:20:55;;;;;;;;;;;21.70;21.10;;;;;;1593373;72;784;-65
2021/04/24 10:22:57;;;;;;;;;;;21.70;22.10;;;;;;1602791;72;823;-64
2021/04/24 10:24:59;;;;;;;;;;;21.70;21.80;;;;;;1595357;72;759;-63
2021/04/24 10:27:01;;;;;;;;;;;21.50;22.20;;;;;;1592968;72;1113;-63
2021/04/24 10:29:03;;;;;;;;;;;21.70;22.70;;;;;;1605847;72;806;-63
2021/04/24 10:31:05;;;;;;;;;;;21.80;22.60;;;;;;1580576;72;790;-63
2021/04/24 10:33:07;;;;;;;;;;;21.80;21.20;;;;;;1591255;72;1945;-64
2021/04/24 10:35:10;;;;;;;;;;;21.60;21.50;;;;;;1596410;72;724;-63
2021/04/24 10:37:12;;;;;;;;;;;21.40;21.70;;;;;;1596005;72;1152;-63
2021/04/24 10:39:24;;;;;;;;;;;21.40;22.60;;;;;;1591665;72;664;-63
2021/04/24 10:41:33;;;;;;;;;;;21.50;22.50;;;;;;1595394;73;694;-63
2021/04/24 10:43:35;;;;;;;;;;;21.60;21.90;;;;;;1593230;73;752;-62
2021/04/24 10:45:37;;;;;;;;;;;21.30;21.40;;;;;;1603032;72;1141;-63
2021/04/24 10:47:45;;;;;;;;;;;21.10;21.10;;;;;;1597613;72;745;-63
2021/04/24 10:49:54;;;;;;;;;;;20.90;21.50;;;;;;1608174;72;708;-62
2021/04/24 10:52:04;;;;;;;;;;;20.80;21.50;;;;;;1591559;72;792;-62
2021/04/24 10:54:12;;;;;;;;;;;20.70;21.80;;;;;;1605787;72;1905;-63
2021/04/24 10:56:14;;;;;;;;;;;20.70;22.90;;;;;;1605418;72;1140;-63
2021/04/24 10:58:18;;;;;;;;;;;20.90;23.50;;;;;;1574496;72;1167;-62
2021/04/24 11:00:21;;;;;;;;;;;20.90;22.40;;;;;;1595678;72;1793;-64
2021/04/24 11:02:23;;;;;;;;;;;20.90;23.10;;;;;;1590822;72;818;-63
2021/04/24 11:04:41;;;;;;;;;;;21.00;23.60;;;;;;1556658;74;1174;-63
2021/04/24 11:06:43;;;;;;;;;;;21.00;22.90;;;;;;1603270;72;1142;-63
2021/04/24 11:08:45;;;;;;;;;;;20.90;22.60;;;;;;1568835;73;1229;-63
2021/04/24 11:10:47;;;;;;;;;;;21.10;23.40;;;;;;1595965;72;758;-62
2021/04/24 11:12:49;;;;;;;;;;;21.00;22.10;;;;;;1599858;73;804;-62
2021/04/24 11:14:51;;;;;;;;;;;20.70;21.60;;;;;;1593616;72;1928;-61
2021/04/24 11:16:53;;;;;;;;;;;20.50;20.80;;;;;;1557723;73;1176;-61
2021/04/24 11:18:55;;;;;;;;;;;20.10;21.90;;;;;;1565566;73;720;-63
2021/04/24 11:20:59;;;;;;;;;;;20.30;23.00;;;;;;1594272;72;765;-64
2021/04/24 11:23:01;;;;;;;;;;;20.50;23.00;;;;;;1591515;72;884;-64
2021/04/24 11:25:20;;;;;;;;;;;20.60;21.80;;;;;;1591069;72;791;-63
2021/04/24 11:27:23;;;;;;;;;;;20.40;21.80;;;;;;1586430;72;682;-63
2021/04/24 11:29:27;;;;;;;;;;;20.30;22.70;;;;;;1587994;72;1735;-64
2021/04/24 11:31:47;;;;;;;;;;;20.50;23.10;;;;;;1593526;72;1814;-63
2021/04/24 11:33:49;;;;;;;;;;;20.60;22.30;;;;;;1598573;72;1923;-62
2021/04/24 11:36:09;;;;;;;;;;;20.60;21.80;;;;;;1591749;72;1136;-63
2021/04/24 11:38:11;;;;;;;;;;;20.70;23.10;;;;;;1589074;72;787;-63
2021/04/24 11:40:25;;;;;;;;;;;20.70;23.60;;;;;;1593359;72;695;-63
2021/04/24 11:42:29;;;;;;;;;;;20.70;22.00;;;;;;1585423;72;1620;-61
2021/04/24 11:44:36;;;;;;;;;;;20.60;22.10;;;;;;1586569;72;683;-62
2021/04/24 11:46:38;;;;;;;;;;;20.70;22.90;;;;;;1590397;72;1155;-62
2021/04/24 11:48:47;;;;;;;;;;;20.60;22.40;;;;;;1591585;72;889;-62
2021/04/24 11:50:49;;;;;;;;;;;20.70;22.70;;;;;;1594298;72;740;-62
2021/04/24 11:52:55;;;;;;;;;;;20.80;21.80;;;;;;1581789;72;761;-62
2021/04/24 11:54:57;;;;;;;;;;;20.80;21.00;;;;;;1583298;72;1894;-64
2021/04/24 11:57:00;;;;;;;;;;;20.90;21.40;;;;;;1598530;72;1113;-64
2021/04/24 11:59:02;;;;;;;;;;;20.90;21.30;;;;;;1594174;72;728;-62
2021/04/24 12:01:05;;;;;;;;;;;20.90;21.50;;;;;;1584458;72;829;-62
2021/04/24 12:03:07;;;;;;;;;;;20.80;22.00;;;;;;1593145;72;1151;-64
2021/04/24 12:05:10;;;;;;;;;;;20.90;21.90;;;;;;1587403;72;734;-62
2021/04/24 12:07:13;;;;;;;;;;;20.90;21.80;;;;;;1584712;73;1064;-62
2021/04/24 12:09:15;;;;;;;;;;;21.00;21.50;;;;;;1593133;72;1255;-62
2021/04/24 12:11:18;;;;;;;;;;;21.10;20.40;;;;;;1597088;73;780;-64